地図

経路データ

SID SEASON NUMBER BASIN SUBBASIN NAME ISO_TIME NATURE LAT LON WMO_WIND WMO_PRES WMO_AGENCY TRACK_TYPE DIST2LAND LANDFALL IFLAG USA_AGENCY USA_ATCF_ID USA_LAT USA_LON USA_RECORD USA_STATUS USA_WIND USA_PRES USA_SSHS USA_R34_NE USA_R34_SE USA_R34_SW USA_R34_NW USA_R50_NE USA_R50_SE USA_R50_SW USA_R50_NW USA_R64_NE USA_R64_SE USA_R64_SW USA_R64_NW USA_POCI USA_ROCI USA_RMW USA_EYE TOKYO_LAT TOKYO_LON TOKYO_GRADE TOKYO_WIND TOKYO_PRES TOKYO_R50_DIR TOKYO_R50_LONG TOKYO_R50_SHORT TOKYO_R30_DIR TOKYO_R30_LONG TOKYO_R30_SHORT TOKYO_LAND CMA_LAT CMA_LON CMA_CAT CMA_WIND CMA_PRES HKO_LAT HKO_LON HKO_CAT HKO_WIND HKO_PRES NEWDELHI_LAT NEWDELHI_LON NEWDELHI_GRADE NEWDELHI_WIND NEWDELHI_PRES NEWDELHI_CI NEWDELHI_DP NEWDELHI_POCI REUNION_LAT REUNION_LON REUNION_TYPE REUNION_WIND REUNION_PRES REUNION_TNUM REUNION_CI REUNION_RMW REUNION_R34_NE REUNION_R34_SE REUNION_R34_SW REUNION_R34_NW REUNION_R50_NE REUNION_R50_SE REUNION_R50_SW REUNION_R50_NW REUNION_R64_NE REUNION_R64_SE REUNION_R64_SW REUNION_R64_NW BOM_LAT BOM_LON BOM_TYPE BOM_WIND BOM_PRES BOM_TNUM BOM_CI BOM_RMW BOM_R34_NE BOM_R34_SE BOM_R34_SW BOM_R34_NW BOM_R50_NE BOM_R50_SE BOM_R50_SW BOM_R50_NW BOM_R64_NE BOM_R64_SE BOM_R64_SW BOM_R64_NW BOM_ROCI BOM_POCI BOM_EYE BOM_POS_METHOD BOM_PRES_METHOD NADI_LAT NADI_LON NADI_CAT NADI_WIND NADI_PRES WELLINGTON_LAT WELLINGTON_LON WELLINGTON_WIND WELLINGTON_PRES DS824_LAT DS824_LON DS824_STAGE DS824_WIND DS824_PRES TD9636_LAT TD9636_LON TD9636_STAGE TD9636_WIND TD9636_PRES TD9635_LAT TD9635_LON TD9635_WIND TD9635_PRES TD9635_ROCI NEUMANN_LAT NEUMANN_LON NEUMANN_CLASS NEUMANN_WIND NEUMANN_PRES MLC_LAT MLC_LON MLC_CLASS MLC_WIND MLC_PRES USA_GUST BOM_GUST BOM_GUST_PER REUNION_GUST REUNION_GUST_PER USA_SEAHGT USA_SEARAD_NE USA_SEARAD_SE USA_SEARAD_SW USA_SEARAD_NW STORM_SPEED STORM_DIR
1884071S17428 1884 9 SI MM NOT_NAMED 1884-03-10 18:00:00 NR -17.0000 67.9000 main 1126 1116 __________O___ -1 -17.0000 67.9000 7 2 265
1884071S17428 1884 9 SI MM NOT_NAMED 1884-03-10 21:00:00 NR -17.0075 67.8117 main 1116 1106 __________P___ -1 -17.0075 67.8117 7 2 255
1884071S17428 1884 9 SI MM NOT_NAMED 1884-03-11 00:00:00 NR -17.0520 67.6988 main 1102 1078 __________P___ -1 -17.0520 67.6988 7 3 238
1884071S17428 1884 9 SI MM NOT_NAMED 1884-03-11 03:00:00 NR -17.1706 67.5366 main 1078 1050 __________P___ -1 -17.1706 67.5366 7 5 228
1884071S17428 1884 9 SI MM NOT_NAMED 1884-03-11 06:00:00 NR -17.4000 67.3000 main 1050 1009 __________O___ -1 -17.4000 67.3000 7 8 222
1884071S17428 1884 9 SI MM NOT_NAMED 1884-03-11 09:00:00 NR -17.7636 66.9744 main 1006 953 __________P___ -1 -17.7636 66.9744 7 11 219
1884071S17428 1884 9 SI MM NOT_NAMED 1884-03-11 12:00:00 NR -18.2308 66.5889 main 953 898 __________P___ -1 -18.2308 66.5889 7 13 217
1884071S17428 1884 9 SI MM NOT_NAMED 1884-03-11 15:00:00 NR -18.7574 66.1837 main 895 844 __________P___ -1 -18.7574 66.1837 7 13 215
1884071S17428 1884 9 SI MM NOT_NAMED 1884-03-11 18:00:00 NR -19.3000 65.8000 main 844 807 __________O___ -1 -19.3000 65.8000 7 12 214
1884071S17428 1884 9 SI MM NOT_NAMED 1884-03-11 21:00:00 NR -19.7561 65.4713 main 806 771 __________P___ -1 -19.7561 65.4713 7 11 213
1884071S17428 1884 9 SI MM NOT_NAMED 1884-03-12 00:00:00 NR -20.2249 65.1743 main 771 740 __________P___ -1 -20.2249 65.1743 7 11 208
1884071S17428 1884 9 SI MM NOT_NAMED 1884-03-12 03:00:00 NR -20.7313 64.9152 main 740 724 __________P___ -1 -20.7313 64.9152 7 12 202
1884071S17428 1884 9 SI MM NOT_NAMED 1884-03-12 06:00:00 NR -21.3000 64.7000 main 725 712 __________O___ -1 -21.3000 64.7000 7 13 198
1884071S17428 1884 9 SI MM NOT_NAMED 1884-03-12 09:00:00 NR -21.9723 64.4802 main 720 712 __________P___ -1 -21.9723 64.4802 7 15 195
1884071S17428 1884 9 SI MM NOT_NAMED 1884-03-12 12:00:00 NR -22.7048 64.3095 main 723 723 __________P___ -1 -22.7048 64.3095 7 15 190
1884071S17428 1884 9 SI MM NOT_NAMED 1884-03-12 15:00:00 NR -23.4598 64.2089 main 749 749 __________P___ -1 -23.4598 64.2089 7 15 184
1884071S17428 1884 9 SI MM NOT_NAMED 1884-03-12 18:00:00 NR -24.2000 64.2000 main 785 785 __________O___ -1 -24.2000 64.2000 7 14 178
1884071S17428 1884 9 SI MM NOT_NAMED 1884-03-12 21:00:00 NR -24.8711 64.2697 main 836 836 __________P___ -1 -24.8711 64.2697 7 13 171
1884071S17428 1884 9 SI MM NOT_NAMED 1884-03-13 00:00:00 NR -25.5219 64.4353 main 884 884 __________P___ -1 -25.5219 64.4353 7 14 164
1884071S17428 1884 9 SI MM NOT_NAMED 1884-03-13 03:00:00 NR -26.1617 64.6832 main 956 956 __________P___ -1 -26.1617 64.6832 7 14 158
1884071S17428 1884 9 SI MM NOT_NAMED 1884-03-13 06:00:00 NR -26.8000 65.0000 main 1023 1023 __________O___ -1 -26.8000 65.0000 7 14 156
1884071S17428 1884 9 SI MM NOT_NAMED 1884-03-13 09:00:00 NR -27.4784 65.3435 main 1098 1098 __________P___ -1 -27.4784 65.3435 7 15 154
1884071S17428 1884 9 SI MM NOT_NAMED 1884-03-13 12:00:00 NR -28.1523 65.7518 main 1187 1187 __________P___ -1 -28.1523 65.7518 7 15 150
1884071S17428 1884 9 SI MM NOT_NAMED 1884-03-13 15:00:00 NR -28.8001 66.2095 main 1262 1262 __________P___ -1 -28.8001 66.2095 7 15 146
1884071S17428 1884 9 SI MM NOT_NAMED 1884-03-13 18:00:00 NR -29.4000 66.7000 main 1344 1344 __________O___ -1 -29.4000 66.7000 7 14 143
1884071S17428 1884 9 SI MM NOT_NAMED 1884-03-13 21:00:00 NR -29.9370 67.2087 main 1418 1418 __________P___ -1 -29.9370 67.2087 7 14 139
1884071S17428 1884 9 SI MM NOT_NAMED 1884-03-14 00:00:00 NR -30.4215 67.7301 main 1491 1491 __________P___ -1 -30.4215 67.7301 7 13 136
1884071S17428 1884 9 SI MM NOT_NAMED 1884-03-14 03:00:00 NR -30.8703 68.2614 main 1571 1571 __________P___ -1 -30.8703 68.2614 7 13 134
1884071S17428 1884 9 SI MM NOT_NAMED 1884-03-14 06:00:00 NR -31.3000 68.8000 main 1636 __________O___ -1 -31.3000 68.8000 7 13 133

IBTrACS Databaseについて

本データベースは、米国NOAAが公開する1842年以降の世界の熱帯低気圧のベストトラックデータアーカイブInternational Best Track Archive for Climate Stewardship (IBTrACS)を、ウェブで閲覧しやすい形式に変換したものです。

最終更新日:2021-11-26